Terminal Aerodrome Forecast
Issued by NWS Brownsville, TX

Home | Current Version | Previous Version | Text Only | Print | Product List | Glossary On
Versions: 1 2 3 4 5 6 7 8 9 10 11 12 13 14 15 16 17
370
FTUS44 KBRO 260522
TAFBRO
TAF
KBRO 260522Z 2606/2706 08005KT P6SM BKN045
     FM260900 12006KT P6SM OVC025
     FM261500 16015G21KT P6SM OVC040=

USA.gov is the U.S. government's official web portal to all federal, state and local government web resources and services.